sensor_id;sensor_type;location;lat;lon;timestamp;P1;durP1;ratioP1;P2;durP2;ratioP2
17239;SDS011;9943;54.378;18.604;2022-08-19T00:00:28;18.08;;;16.17;;
17239;SDS011;9943;54.378;18.604;2022-08-19T00:02:58;21.05;;;17.50;;
17239;SDS011;9943;54.378;18.604;2022-08-19T00:05:28;17.52;;;15.85;;
17239;SDS011;9943;54.378;18.604;2022-08-19T00:07:56;18.95;;;17.00;;
17239;SDS011;9943;54.378;18.604;2022-08-19T00:10:27;18.48;;;16.50;;
17239;SDS011;9943;54.378;18.604;2022-08-19T00:12:59;18.20;;;16.30;;
17239;SDS011;9943;54.378;18.604;2022-08-19T00:15:39;19.70;;;17.85;;
17239;SDS011;9943;54.378;18.604;2022-08-19T00:18:13;19.83;;;17.77;;
17239;SDS011;9943;54.378;18.604;2022-08-19T00:20:43;19.58;;;17.10;;
17239;SDS011;9943;54.378;18.604;2022-08-19T00:23:15;20.63;;;17.75;;
17239;SDS011;9943;54.378;18.604;2022-08-19T00:25:45;19.73;;;17.65;;
17239;SDS011;9943;54.378;18.604;2022-08-19T00:28:18;19.80;;;17.65;;
17239;SDS011;9943;54.378;18.604;2022-08-19T00:30:51;19.27;;;17.35;;
17239;SDS011;9943;54.378;18.604;2022-08-19T00:33:19;19.45;;;17.25;;
17239;SDS011;9943;54.378;18.604;2022-08-19T00:35:52;20.23;;;18.23;;
17239;SDS011;9943;54.378;18.604;2022-08-19T00:38:27;20.85;;;18.75;;
17239;SDS011;9943;54.378;18.604;2022-08-19T00:40:57;21.67;;;19.25;;
17239;SDS011;9943;54.378;18.604;2022-08-19T00:43:50;22.95;;;19.15;;
17239;SDS011;9943;54.378;18.604;2022-08-19T00:46:31;25.05;;;19.85;;
17239;SDS011;9943;54.378;18.604;2022-08-19T00:49:10;20.98;;;18.38;;
17239;SDS011;9943;54.378;18.604;2022-08-19T00:51:47;23.10;;;17.20;;
17239;SDS011;9943;54.378;18.604;2022-08-19T00:54:22;22.95;;;16.75;;
17239;SDS011;9943;54.378;18.604;2022-08-19T00:56:51;19.70;;;17.42;;
17239;SDS011;9943;54.378;18.604;2022-08-19T00:59:21;25.27;;;21.25;;
17239;SDS011;9943;54.378;18.604;2022-08-19T01:01:57;23.38;;;18.42;;
17239;SDS011;9943;54.378;18.604;2022-08-19T01:04:29;19.42;;;17.48;;
17239;SDS011;9943;54.378;18.604;2022-08-19T01:07:09;21.25;;;19.13;;
17239;SDS011;9943;54.378;18.604;2022-08-19T01:09:40;19.50;;;17.60;;
17239;SDS011;9943;54.378;18.604;2022-08-19T01:12:09;23.90;;;20.10;;
17239;SDS011;9943;54.378;18.604;2022-08-19T01:14:40;19.13;;;17.25;;
17239;SDS011;9943;54.378;18.604;2022-08-19T01:17:10;19.25;;;17.25;;
17239;SDS011;9943;54.378;18.604;2022-08-19T01:19:40;19.05;;;17.17;;
17239;SDS011;9943;54.378;18.604;2022-08-19T01:22:14;21.85;;;19.15;;
17239;SDS011;9943;54.378;18.604;2022-08-19T01:24:56;20.65;;;18.60;;
17239;SDS011;9943;54.378;18.604;2022-08-19T01:27:36;20.33;;;18.15;;
17239;SDS011;9943;54.378;18.604;2022-08-19T01:30:10;19.92;;;17.90;;
17239;SDS011;9943;54.378;18.604;2022-08-19T01:32:42;18.88;;;16.90;;
17239;SDS011;9943;54.378;18.604;2022-08-19T01:35:12;20.27;;;17.95;;
17239;SDS011;9943;54.378;18.604;2022-08-19T01:37:53;20.35;;;17.58;;
17239;SDS011;9943;54.378;18.604;2022-08-19T01:40:26;21.23;;;18.88;;
17239;SDS011;9943;54.378;18.604;2022-08-19T01:43:00;21.08;;;18.98;;
17239;SDS011;9943;54.378;18.604;2022-08-19T01:45:33;20.77;;;18.77;;
17239;SDS011;9943;54.378;18.604;2022-08-19T01:48:05;21.20;;;19.00;;
17239;SDS011;9943;54.378;18.604;2022-08-19T01:50:37;21.88;;;19.70;;
17239;SDS011;9943;54.378;18.604;2022-08-19T01:53:09;25.15;;;20.13;;
17239;SDS011;9943;54.378;18.604;2022-08-19T01:55:42;23.02;;;20.42;;
17239;SDS011;9943;54.378;18.604;2022-08-19T01:58:16;21.98;;;19.88;;
17239;SDS011;9943;54.378;18.604;2022-08-19T02:00:52;22.42;;;20.02;;
17239;SDS011;9943;54.378;18.604;2022-08-19T02:03:23;23.75;;;20.55;;
17239;SDS011;9943;54.378;18.604;2022-08-19T02:06:00;76.43;;;47.15;;
17239;SDS011;9943;54.378;18.604;2022-08-19T02:08:36;22.95;;;20.60;;
17239;SDS011;9943;54.378;18.604;2022-08-19T02:11:10;25.52;;;21.60;;
17239;SDS011;9943;54.378;18.604;2022-08-19T02:13:53;22.10;;;19.85;;
17239;SDS011;9943;54.378;18.604;2022-08-19T02:16:40;24.08;;;20.50;;
17239;SDS011;9943;54.378;18.604;2022-08-19T02:19:17;23.13;;;20.77;;
17239;SDS011;9943;54.378;18.604;2022-08-19T02:22:04;25.00;;;20.55;;
17239;SDS011;9943;54.378;18.604;2022-08-19T02:24:33;22.98;;;20.60;;
17239;SDS011;9943;54.378;18.604;2022-08-19T02:27:05;26.33;;;21.08;;
17239;SDS011;9943;54.378;18.604;2022-08-19T02:29:37;23.50;;;20.52;;
17239;SDS011;9943;54.378;18.604;2022-08-19T02:32:15;22.55;;;20.27;;
17239;SDS011;9943;54.378;18.604;2022-08-19T02:34:44;23.23;;;20.58;;
17239;SDS011;9943;54.378;18.604;2022-08-19T02:37:16;23.58;;;20.38;;
17239;SDS011;9943;54.378;18.604;2022-08-19T02:40:12;22.95;;;20.55;;
17239;SDS011;9943;54.378;18.604;2022-08-19T02:42:50;22.00;;;20.08;;
17239;SDS011;9943;54.378;18.604;2022-08-19T02:45:26;22.75;;;20.55;;
17239;SDS011;9943;54.378;18.604;2022-08-19T02:48:02;23.63;;;21.05;;
17239;SDS011;9943;54.378;18.604;2022-08-19T02:50:31;24.33;;;21.67;;
17239;SDS011;9943;54.378;18.604;2022-08-19T02:53:01;25.42;;;21.60;;
17239;SDS011;9943;54.378;18.604;2022-08-19T02:55:29;26.90;;;24.05;;
17239;SDS011;9943;54.378;18.604;2022-08-19T02:58:09;26.13;;;23.25;;
17239;SDS011;9943;54.378;18.604;2022-08-19T03:00:42;26.25;;;23.52;;
17239;SDS011;9943;54.378;18.604;2022-08-19T03:03:22;22.33;;;19.95;;
17239;SDS011;9943;54.378;18.604;2022-08-19T03:06:06;21.25;;;19.15;;
17239;SDS011;9943;54.378;18.604;2022-08-19T03:08:41;19.95;;;17.80;;
17239;SDS011;9943;54.378;18.604;2022-08-19T03:11:13;21.73;;;19.45;;
17239;SDS011;9943;54.378;18.604;2022-08-19T03:13:51;20.15;;;18.08;;
17239;SDS011;9943;54.378;18.604;2022-08-19T03:16:23;22.65;;;19.13;;
17239;SDS011;9943;54.378;18.604;2022-08-19T03:18:55;21.80;;;19.35;;
17239;SDS011;9943;54.378;18.604;2022-08-19T03:21:26;19.35;;;17.30;;
17239;SDS011;9943;54.378;18.604;2022-08-19T03:24:01;19.33;;;17.27;;
17239;SDS011;9943;54.378;18.604;2022-08-19T03:26:38;19.45;;;17.45;;
17239;SDS011;9943;54.378;18.604;2022-08-19T03:29:12;21.48;;;18.42;;
17239;SDS011;9943;54.378;18.604;2022-08-19T03:31:47;19.15;;;17.17;;
17239;SDS011;9943;54.378;18.604;2022-08-19T03:34:24;19.55;;;17.75;;
17239;SDS011;9943;54.378;18.604;2022-08-19T03:36:58;19.58;;;17.45;;
17239;SDS011;9943;54.378;18.604;2022-08-19T03:39:35;20.67;;;17.73;;
17239;SDS011;9943;54.378;18.604;2022-08-19T03:42:06;19.85;;;17.80;;
17239;SDS011;9943;54.378;18.604;2022-08-19T03:44:45;19.67;;;17.83;;
17239;SDS011;9943;54.378;18.604;2022-08-19T03:47:20;19.27;;;17.27;;
17239;SDS011;9943;54.378;18.604;2022-08-19T03:50:20;20.60;;;18.50;;
17239;SDS011;9943;54.378;18.604;2022-08-19T03:52:56;18.52;;;16.73;;
17239;SDS011;9943;54.378;18.604;2022-08-19T03:55:31;20.48;;;18.05;;
17239;SDS011;9943;54.378;18.604;2022-08-19T03:58:11;19.13;;;17.10;;
17239;SDS011;9943;54.378;18.604;2022-08-19T04:00:46;20.23;;;17.95;;
17239;SDS011;9943;54.378;18.604;2022-08-19T04:03:15;20.63;;;17.30;;
17239;SDS011;9943;54.378;18.604;2022-08-19T04:05:58;23.48;;;17.77;;
17239;SDS011;9943;54.378;18.604;2022-08-19T04:08:38;19.50;;;17.73;;
17239;SDS011;9943;54.378;18.604;2022-08-19T04:11:15;19.88;;;17.80;;
17239;SDS011;9943;54.378;18.604;2022-08-19T04:13:52;19.60;;;17.60;;
17239;SDS011;9943;54.378;18.604;2022-08-19T04:16:25;19.95;;;17.10;;
17239;SDS011;9943;54.378;18.604;2022-08-19T04:19:03;20.70;;;17.40;;
17239;SDS011;9943;54.378;18.604;2022-08-19T04:21:42;20.80;;;18.80;;
17239;SDS011;9943;54.378;18.604;2022-08-19T04:24:59;19.98;;;16.73;;
17239;SDS011;9943;54.378;18.604;2022-08-19T04:27:35;18.60;;;16.90;;
17239;SDS011;9943;54.378;18.604;2022-08-19T04:30:42;17.60;;;15.90;;
17239;SDS011;9943;54.378;18.604;2022-08-19T04:33:15;18.17;;;16.00;;
17239;SDS011;9943;54.378;18.604;2022-08-19T04:35:46;17.38;;;15.52;;
17239;SDS011;9943;54.378;18.604;2022-08-19T04:38:17;17.65;;;15.88;;
17239;SDS011;9943;54.378;18.604;2022-08-19T04:40:50;20.55;;;17.10;;
17239;SDS011;9943;54.378;18.604;2022-08-19T04:43:40;18.17;;;16.23;;
17239;SDS011;9943;54.378;18.604;2022-08-19T04:46:07;22.38;;;15.50;;
17239;SDS011;9943;54.378;18.604;2022-08-19T04:48:42;16.50;;;15.00;;
17239;SDS011;9943;54.378;18.604;2022-08-19T04:51:12;17.15;;;15.35;;
17239;SDS011;9943;54.378;18.604;2022-08-19T04:53:43;17.02;;;15.30;;
17239;SDS011;9943;54.378;18.604;2022-08-19T04:56:17;17.75;;;15.25;;
17239;SDS011;9943;54.378;18.604;2022-08-19T04:59:02;16.75;;;15.05;;
17239;SDS011;9943;54.378;18.604;2022-08-19T05:01:32;20.73;;;15.93;;
17239;SDS011;9943;54.378;18.604;2022-08-19T05:04:07;15.95;;;14.43;;
17239;SDS011;9943;54.378;18.604;2022-08-19T05:06:37;17.73;;;15.60;;
17239;SDS011;9943;54.378;18.604;2022-08-19T05:09:14;22.92;;;14.52;;
17239;SDS011;9943;54.378;18.604;2022-08-19T05:11:50;18.08;;;14.40;;
17239;SDS011;9943;54.378;18.604;2022-08-19T05:14:20;18.98;;;14.00;;
17239;SDS011;9943;54.378;18.604;2022-08-19T05:16:50;15.35;;;13.48;;
17239;SDS011;9943;54.378;18.604;2022-08-19T05:19:21;14.38;;;13.05;;
17239;SDS011;9943;54.378;18.604;2022-08-19T05:22:07;23.88;;;14.23;;
17239;SDS011;9943;54.378;18.604;2022-08-19T05:24:53;16.10;;;14.05;;
17239;SDS011;9943;54.378;18.604;2022-08-19T05:27:22;17.83;;;13.80;;
17239;SDS011;9943;54.378;18.604;2022-08-19T05:29:59;19.73;;;14.60;;
17239;SDS011;9943;54.378;18.604;2022-08-19T05:32:30;17.30;;;13.93;;
17239;SDS011;9943;54.378;18.604;2022-08-19T05:34:59;17.02;;;12.98;;
17239;SDS011;9943;54.378;18.604;2022-08-19T05:37:36;16.35;;;12.85;;
17239;SDS011;9943;54.378;18.604;2022-08-19T05:40:09;15.00;;;12.77;;
17239;SDS011;9943;54.378;18.604;2022-08-19T05:42:57;15.18;;;13.18;;
17239;SDS011;9943;54.378;18.604;2022-08-19T05:45:28;15.65;;;12.40;;
17239;SDS011;9943;54.378;18.604;2022-08-19T05:48:10;13.65;;;12.25;;
17239;SDS011;9943;54.378;18.604;2022-08-19T05:50:46;14.55;;;12.20;;
17239;SDS011;9943;54.378;18.604;2022-08-19T05:53:16;16.58;;;12.00;;
17239;SDS011;9943;54.378;18.604;2022-08-19T05:55:44;19.73;;;12.77;;
17239;SDS011;9943;54.378;18.604;2022-08-19T06:01:12;16.40;;;12.23;;
17239;SDS011;9943;54.378;18.604;2022-08-19T06:03:59;14.73;;;11.85;;
17239;SDS011;9943;54.378;18.604;2022-08-19T06:06:51;14.35;;;11.63;;
17239;SDS011;9943;54.378;18.604;2022-08-19T06:09:28;17.02;;;12.20;;
17239;SDS011;9943;54.378;18.604;2022-08-19T06:12:07;12.35;;;11.15;;
17239;SDS011;9943;54.378;18.604;2022-08-19T06:14:38;14.45;;;11.60;;
17239;SDS011;9943;54.378;18.604;2022-08-19T06:17:11;12.82;;;9.85;;
17239;SDS011;9943;54.378;18.604;2022-08-19T06:19:54;10.35;;;9.20;;
17239;SDS011;9943;54.378;18.604;2022-08-19T06:22:39;10.38;;;9.38;;
17239;SDS011;9943;54.378;18.604;2022-08-19T06:25:10;10.30;;;9.23;;
17239;SDS011;9943;54.378;18.604;2022-08-19T06:27:42;17.02;;;10.40;;
17239;SDS011;9943;54.378;18.604;2022-08-19T06:30:11;11.52;;;9.43;;
17239;SDS011;9943;54.378;18.604;2022-08-19T06:32:44;10.55;;;9.55;;
17239;SDS011;9943;54.378;18.604;2022-08-19T06:35:18;10.10;;;9.18;;
17239;SDS011;9943;54.378;18.604;2022-08-19T06:37:50;13.02;;;9.90;;
17239;SDS011;9943;54.378;18.604;2022-08-19T06:40:43;10.18;;;8.98;;
17239;SDS011;9943;54.378;18.604;2022-08-19T06:43:12;12.00;;;9.45;;
17239;SDS011;9943;54.378;18.604;2022-08-19T06:45:42;10.50;;;9.40;;
17239;SDS011;9943;54.378;18.604;2022-08-19T06:48:14;10.57;;;8.68;;
17239;SDS011;9943;54.378;18.604;2022-08-19T06:50:51;9.65;;;8.70;;
17239;SDS011;9943;54.378;18.604;2022-08-19T06:53:22;11.15;;;8.40;;
17239;SDS011;9943;54.378;18.604;2022-08-19T06:58:51;11.48;;;8.15;;
17239;SDS011;9943;54.378;18.604;2022-08-19T07:01:24;10.35;;;8.38;;
17239;SDS011;9943;54.378;18.604;2022-08-19T07:04:24;12.65;;;8.40;;
17239;SDS011;9943;54.378;18.604;2022-08-19T07:06:59;12.20;;;8.85;;
17239;SDS011;9943;54.378;18.604;2022-08-19T07:09:37;8.98;;;8.00;;
17239;SDS011;9943;54.378;18.604;2022-08-19T07:12:18;9.63;;;8.60;;
17239;SDS011;9943;54.378;18.604;2022-08-19T07:15:07;10.35;;;9.30;;
17239;SDS011;9943;54.378;18.604;2022-08-19T07:17:40;9.80;;;8.88;;
17239;SDS011;9943;54.378;18.604;2022-08-19T07:20:22;11.30;;;8.65;;
17239;SDS011;9943;54.378;18.604;2022-08-19T07:22:51;11.02;;;9.18;;
17239;SDS011;9943;54.378;18.604;2022-08-19T07:25:26;10.73;;;9.70;;
17239;SDS011;9943;54.378;18.604;2022-08-19T07:28:03;11.93;;;9.65;;
17239;SDS011;9943;54.378;18.604;2022-08-19T07:30:36;10.73;;;9.05;;
17239;SDS011;9943;54.378;18.604;2022-08-19T07:33:06;9.85;;;8.77;;
17239;SDS011;9943;54.378;18.604;2022-08-19T07:35:34;13.82;;;8.52;;
17239;SDS011;9943;54.378;18.604;2022-08-19T07:38:03;9.75;;;8.85;;
17239;SDS011;9943;54.378;18.604;2022-08-19T07:40:35;11.23;;;8.88;;
17239;SDS011;9943;54.378;18.604;2022-08-19T07:43:05;15.63;;;9.48;;
17239;SDS011;9943;54.378;18.604;2022-08-19T07:45:38;10.45;;;8.93;;
17239;SDS011;9943;54.378;18.604;2022-08-19T07:48:22;12.35;;;10.23;;
17239;SDS011;9943;54.378;18.604;2022-08-19T07:51:04;9.55;;;8.35;;
17239;SDS011;9943;54.378;18.604;2022-08-19T07:53:36;10.02;;;8.75;;
17239;SDS011;9943;54.378;18.604;2022-08-19T07:56:13;10.48;;;8.70;;
17239;SDS011;9943;54.378;18.604;2022-08-19T07:58:44;9.73;;;8.50;;
17239;SDS011;9943;54.378;18.604;2022-08-19T08:01:15;10.75;;;8.75;;
17239;SDS011;9943;54.378;18.604;2022-08-19T08:03:43;10.85;;;7.75;;
17239;SDS011;9943;54.378;18.604;2022-08-19T08:06:31;13.38;;;8.90;;
17239;SDS011;9943;54.378;18.604;2022-08-19T08:09:19;10.35;;;8.00;;
17239;SDS011;9943;54.378;18.604;2022-08-19T08:12:01;9.88;;;7.63;;
17239;SDS011;9943;54.378;18.604;2022-08-19T08:14:33;10.73;;;8.73;;
17239;SDS011;9943;54.378;18.604;2022-08-19T08:17:09;9.13;;;8.15;;
17239;SDS011;9943;54.378;18.604;2022-08-19T08:19:40;11.82;;;8.45;;
17239;SDS011;9943;54.378;18.604;2022-08-19T08:22:14;8.93;;;8.02;;
17239;SDS011;9943;54.378;18.604;2022-08-19T08:25:00;10.95;;;7.88;;
17239;SDS011;9943;54.378;18.604;2022-08-19T08:27:49;10.25;;;8.15;;
17239;SDS011;9943;54.378;18.604;2022-08-19T08:30:19;9.88;;;7.93;;
17239;SDS011;9943;54.378;18.604;2022-08-19T08:32:49;10.43;;;7.65;;
17239;SDS011;9943;54.378;18.604;2022-08-19T08:35:21;8.82;;;7.93;;
17239;SDS011;9943;54.378;18.604;2022-08-19T08:38:13;8.80;;;7.90;;
17239;SDS011;9943;54.378;18.604;2022-08-19T08:40:44;12.05;;;7.63;;
17239;SDS011;9943;54.378;18.604;2022-08-19T08:43:35;10.15;;;7.35;;
17239;SDS011;9943;54.378;18.604;2022-08-19T08:46:21;8.98;;;7.72;;
17239;SDS011;9943;54.378;18.604;2022-08-19T08:48:59;8.90;;;7.10;;
17239;SDS011;9943;54.378;18.604;2022-08-19T08:51:36;10.38;;;8.05;;
17239;SDS011;9943;54.378;18.604;2022-08-19T08:54:11;10.40;;;7.38;;
17239;SDS011;9943;54.378;18.604;2022-08-19T08:56:47;14.95;;;8.18;;
17239;SDS011;9943;54.378;18.604;2022-08-19T08:59:37;11.25;;;6.50;;
17239;SDS011;9943;54.378;18.604;2022-08-19T09:02:09;9.48;;;7.20;;
17239;SDS011;9943;54.378;18.604;2022-08-19T09:04:37;8.35;;;6.53;;
17239;SDS011;9943;54.378;18.604;2022-08-19T09:07:22;10.88;;;7.10;;
17239;SDS011;9943;54.378;18.604;2022-08-19T09:10:02;9.65;;;7.00;;
17239;SDS011;9943;54.378;18.604;2022-08-19T09:12:34;14.15;;;7.72;;
17239;SDS011;9943;54.378;18.604;2022-08-19T09:15:07;10.65;;;6.43;;
17239;SDS011;9943;54.378;18.604;2022-08-19T09:17:39;7.82;;;6.35;;
17239;SDS011;9943;54.378;18.604;2022-08-19T09:20:14;8.02;;;6.75;;
17239;SDS011;9943;54.378;18.604;2022-08-19T09:22:45;10.30;;;6.53;;
17239;SDS011;9943;54.378;18.604;2022-08-19T09:25:16;11.32;;;6.60;;
17239;SDS011;9943;54.378;18.604;2022-08-19T09:27:44;9.65;;;7.47;;
17239;SDS011;9943;54.378;18.604;2022-08-19T09:30:26;12.23;;;6.68;;
17239;SDS011;9943;54.378;18.604;2022-08-19T09:32:58;9.93;;;6.30;;
17239;SDS011;9943;54.378;18.604;2022-08-19T09:35:29;9.30;;;6.32;;
17239;SDS011;9943;54.378;18.604;2022-08-19T09:38:04;7.88;;;5.97;;
17239;SDS011;9943;54.378;18.604;2022-08-19T09:40:50;7.93;;;6.00;;
17239;SDS011;9943;54.378;18.604;2022-08-19T09:43:20;7.97;;;6.68;;
17239;SDS011;9943;54.378;18.604;2022-08-19T09:45:55;7.82;;;6.43;;
17239;SDS011;9943;54.378;18.604;2022-08-19T09:48:26;7.10;;;6.40;;
17239;SDS011;9943;54.378;18.604;2022-08-19T09:51:03;11.18;;;6.47;;
17239;SDS011;9943;54.378;18.604;2022-08-19T09:53:35;9.13;;;6.20;;
17239;SDS011;9943;54.378;18.604;2022-08-19T09:56:05;9.80;;;6.60;;
17239;SDS011;9943;54.378;18.604;2022-08-19T09:58:38;9.50;;;6.88;;
17239;SDS011;9943;54.378;18.604;2022-08-19T10:01:19;9.60;;;6.47;;
17239;SDS011;9943;54.378;18.604;2022-08-19T10:04:03;6.93;;;5.70;;
17239;SDS011;9943;54.378;18.604;2022-08-19T10:06:37;8.48;;;5.93;;
17239;SDS011;9943;54.378;18.604;2022-08-19T10:09:09;9.43;;;6.60;;
17239;SDS011;9943;54.378;18.604;2022-08-19T10:11:39;8.90;;;5.95;;
17239;SDS011;9943;54.378;18.604;2022-08-19T10:14:21;6.97;;;5.80;;
17239;SDS011;9943;54.378;18.604;2022-08-19T10:20:01;8.10;;;5.75;;
17239;SDS011;9943;54.378;18.604;2022-08-19T10:22:30;7.32;;;6.50;;
17239;SDS011;9943;54.378;18.604;2022-08-19T10:25:05;7.93;;;6.22;;
17239;SDS011;9943;54.378;18.604;2022-08-19T10:27:46;10.32;;;6.05;;
17239;SDS011;9943;54.378;18.604;2022-08-19T10:30:39;9.52;;;5.68;;
17239;SDS011;9943;54.378;18.604;2022-08-19T10:33:08;7.93;;;5.90;;
17239;SDS011;9943;54.378;18.604;2022-08-19T10:35:48;7.07;;;6.30;;
17239;SDS011;9943;54.378;18.604;2022-08-19T10:38:34;10.40;;;6.75;;
17239;SDS011;9943;54.378;18.604;2022-08-19T10:41:20;8.95;;;6.40;;
17239;SDS011;9943;54.378;18.604;2022-08-19T10:43:53;7.82;;;5.80;;
17239;SDS011;9943;54.378;18.604;2022-08-19T10:46:24;10.70;;;6.40;;
17239;SDS011;9943;54.378;18.604;2022-08-19T10:49:04;10.23;;;6.65;;
17239;SDS011;9943;54.378;18.604;2022-08-19T10:51:35;11.05;;;6.50;;
17239;SDS011;9943;54.378;18.604;2022-08-19T10:54:25;11.85;;;7.07;;
17239;SDS011;9943;54.378;18.604;2022-08-19T10:57:14;11.02;;;6.47;;
17239;SDS011;9943;54.378;18.604;2022-08-19T10:59:43;9.30;;;6.28;;
17239;SDS011;9943;54.378;18.604;2022-08-19T11:02:16;7.90;;;6.20;;
17239;SDS011;9943;54.378;18.604;2022-08-19T11:04:55;6.93;;;6.22;;
17239;SDS011;9943;54.378;18.604;2022-08-19T11:10:15;9.00;;;6.35;;
17239;SDS011;9943;54.378;18.604;2022-08-19T11:12:50;12.40;;;6.72;;
17239;SDS011;9943;54.378;18.604;2022-08-19T11:15:20;10.88;;;6.93;;
17239;SDS011;9943;54.378;18.604;2022-08-19T11:17:50;7.28;;;6.50;;
17239;SDS011;9943;54.378;18.604;2022-08-19T11:20:23;12.73;;;6.85;;
17239;SDS011;9943;54.378;18.604;2022-08-19T11:22:54;7.43;;;6.63;;
17239;SDS011;9943;54.378;18.604;2022-08-19T11:25:27;8.27;;;6.47;;
17239;SDS011;9943;54.378;18.604;2022-08-19T11:27:58;8.05;;;6.80;;
17239;SDS011;9943;54.378;18.604;2022-08-19T11:30:33;8.50;;;6.68;;
17239;SDS011;9943;54.378;18.604;2022-08-19T11:33:03;12.60;;;6.72;;
17239;SDS011;9943;54.378;18.604;2022-08-19T11:35:32;10.95;;;6.90;;
17239;SDS011;9943;54.378;18.604;2022-08-19T11:38:04;7.82;;;7.00;;
17239;SDS011;9943;54.378;18.604;2022-08-19T11:40:36;9.18;;;6.18;;
17239;SDS011;9943;54.378;18.604;2022-08-19T11:43:10;9.93;;;7.00;;
17239;SDS011;9943;54.378;18.604;2022-08-19T11:45:43;12.68;;;6.50;;
17239;SDS011;9943;54.378;18.604;2022-08-19T11:48:14;11.27;;;7.43;;
17239;SDS011;9943;54.378;18.604;2022-08-19T11:50:44;10.80;;;7.40;;
17239;SDS011;9943;54.378;18.604;2022-08-19T11:53:20;8.90;;;6.68;;
17239;SDS011;9943;54.378;18.604;2022-08-19T11:56:08;13.18;;;7.47;;
17239;SDS011;9943;54.378;18.604;2022-08-19T11:58:43;10.38;;;6.80;;
17239;SDS011;9943;54.378;18.604;2022-08-19T12:01:28;11.25;;;7.10;;
17239;SDS011;9943;54.378;18.604;2022-08-19T12:03:59;11.90;;;7.22;;
17239;SDS011;9943;54.378;18.604;2022-08-19T12:06:49;13.45;;;6.88;;
17239;SDS011;9943;54.378;18.604;2022-08-19T12:09:21;14.38;;;7.25;;
17239;SDS011;9943;54.378;18.604;2022-08-19T12:11:55;10.68;;;7.68;;
17239;SDS011;9943;54.378;18.604;2022-08-19T12:14:33;10.57;;;8.25;;
17239;SDS011;9943;54.378;18.604;2022-08-19T12:17:16;9.05;;;7.68;;
17239;SDS011;9943;54.378;18.604;2022-08-19T12:19:45;11.50;;;7.40;;
17239;SDS011;9943;54.378;18.604;2022-08-19T12:22:19;9.25;;;7.47;;
17239;SDS011;9943;54.378;18.604;2022-08-19T12:24:49;11.02;;;7.88;;
17239;SDS011;9943;54.378;18.604;2022-08-19T12:27:39;8.65;;;7.43;;
17239;SDS011;9943;54.378;18.604;2022-08-19T12:30:09;7.65;;;6.90;;
17239;SDS011;9943;54.378;18.604;2022-08-19T12:32:40;9.25;;;7.07;;
17239;SDS011;9943;54.378;18.604;2022-08-19T12:35:15;11.20;;;6.93;;
17239;SDS011;9943;54.378;18.604;2022-08-19T12:37:48;9.25;;;7.00;;
17239;SDS011;9943;54.378;18.604;2022-08-19T12:40:26;7.93;;;6.70;;
17239;SDS011;9943;54.378;18.604;2022-08-19T12:43:26;9.20;;;7.03;;
17239;SDS011;9943;54.378;18.604;2022-08-19T12:46:03;9.43;;;7.05;;
17239;SDS011;9943;54.378;18.604;2022-08-19T12:48:52;11.60;;;6.88;;
17239;SDS011;9943;54.378;18.604;2022-08-19T12:51:26;12.60;;;7.00;;
17239;SDS011;9943;54.378;18.604;2022-08-19T12:53:58;9.75;;;6.15;;
17239;SDS011;9943;54.378;18.604;2022-08-19T12:56:33;11.15;;;7.45;;
17239;SDS011;9943;54.378;18.604;2022-08-19T12:59:15;10.05;;;6.85;;
17239;SDS011;9943;54.378;18.604;2022-08-19T13:01:44;12.55;;;6.68;;
17239;SDS011;9943;54.378;18.604;2022-08-19T13:04:15;10.15;;;6.82;;
17239;SDS011;9943;54.378;18.604;2022-08-19T13:06:46;10.15;;;6.70;;
17239;SDS011;9943;54.378;18.604;2022-08-19T13:09:28;10.93;;;6.85;;
17239;SDS011;9943;54.378;18.604;2022-08-19T13:11:56;7.68;;;6.43;;
17239;SDS011;9943;54.378;18.604;2022-08-19T13:20:12;10.40;;;6.72;;
17239;SDS011;9943;54.378;18.604;2022-08-19T13:22:41;12.15;;;7.03;;
17239;SDS011;9943;54.378;18.604;2022-08-19T13:25:24;8.77;;;6.40;;
17239;SDS011;9943;54.378;18.604;2022-08-19T13:27:55;7.05;;;6.40;;
17239;SDS011;9943;54.378;18.604;2022-08-19T13:30:32;8.10;;;6.75;;
17239;SDS011;9943;54.378;18.604;2022-08-19T13:33:21;9.65;;;7.05;;
17239;SDS011;9943;54.378;18.604;2022-08-19T13:36:08;8.75;;;7.10;;
17239;SDS011;9943;54.378;18.604;2022-08-19T13:38:41;11.35;;;7.28;;
17239;SDS011;9943;54.378;18.604;2022-08-19T13:41:13;14.93;;;6.82;;
17239;SDS011;9943;54.378;18.604;2022-08-19T13:43:45;8.88;;;6.43;;
17239;SDS011;9943;54.378;18.604;2022-08-19T13:46:15;8.60;;;7.13;;
17239;SDS011;9943;54.378;18.604;2022-08-19T13:48:44;9.80;;;6.70;;
17239;SDS011;9943;54.378;18.604;2022-08-19T13:51:15;9.35;;;6.88;;
17239;SDS011;9943;54.378;18.604;2022-08-19T13:57:07;11.40;;;6.88;;
17239;SDS011;9943;54.378;18.604;2022-08-19T13:59:56;15.02;;;7.55;;
17239;SDS011;9943;54.378;18.604;2022-08-19T14:02:27;9.77;;;6.95;;
17239;SDS011;9943;54.378;18.604;2022-08-19T14:04:59;7.85;;;6.97;;
17239;SDS011;9943;54.378;18.604;2022-08-19T14:07:32;8.75;;;6.75;;
17239;SDS011;9943;54.378;18.604;2022-08-19T14:10:08;7.97;;;7.18;;
17239;SDS011;9943;54.378;18.604;2022-08-19T14:12:40;12.95;;;6.90;;
17239;SDS011;9943;54.378;18.604;2022-08-19T14:15:11;9.32;;;7.82;;
17239;SDS011;9943;54.378;18.604;2022-08-19T14:17:43;14.13;;;7.32;;
17239;SDS011;9943;54.378;18.604;2022-08-19T14:20:16;10.98;;;7.10;;
17239;SDS011;9943;54.378;18.604;2022-08-19T14:22:48;9.48;;;7.07;;
17239;SDS011;9943;54.378;18.604;2022-08-19T14:25:28;12.93;;;7.05;;
17239;SDS011;9943;54.378;18.604;2022-08-19T14:28:04;13.55;;;7.47;;
17239;SDS011;9943;54.378;18.604;2022-08-19T14:30:35;9.57;;;6.93;;
17239;SDS011;9943;54.378;18.604;2022-08-19T14:33:12;8.57;;;7.15;;
17239;SDS011;9943;54.378;18.604;2022-08-19T14:35:41;11.77;;;7.43;;
17239;SDS011;9943;54.378;18.604;2022-08-19T14:38:17;8.85;;;7.18;;
17239;SDS011;9943;54.378;18.604;2022-08-19T14:40:50;13.52;;;7.28;;
17239;SDS011;9943;54.378;18.604;2022-08-19T14:43:29;11.68;;;6.57;;
17239;SDS011;9943;54.378;18.604;2022-08-19T14:46:11;9.00;;;7.22;;
17239;SDS011;9943;54.378;18.604;2022-08-19T14:49:06;8.60;;;7.05;;
17239;SDS011;9943;54.378;18.604;2022-08-19T14:51:47;10.85;;;7.38;;
17239;SDS011;9943;54.378;18.604;2022-08-19T14:54:28;9.73;;;7.28;;
17239;SDS011;9943;54.378;18.604;2022-08-19T14:56:57;11.07;;;7.72;;
17239;SDS011;9943;54.378;18.604;2022-08-19T14:59:48;8.52;;;7.45;;
17239;SDS011;9943;54.378;18.604;2022-08-19T15:02:27;16.48;;;7.63;;
17239;SDS011;9943;54.378;18.604;2022-08-19T15:05:05;9.27;;;7.07;;
17239;SDS011;9943;54.378;18.604;2022-08-19T15:07:37;12.02;;;7.05;;
17239;SDS011;9943;54.378;18.604;2022-08-19T15:12:57;13.57;;;7.15;;
17239;SDS011;9943;54.378;18.604;2022-08-19T15:15:29;9.95;;;7.47;;
17239;SDS011;9943;54.378;18.604;2022-08-19T15:18:12;9.85;;;7.07;;
17239;SDS011;9943;54.378;18.604;2022-08-19T15:20:43;9.00;;;7.43;;
17239;SDS011;9943;54.378;18.604;2022-08-19T15:23:15;12.27;;;7.55;;
17239;SDS011;9943;54.378;18.604;2022-08-19T15:25:45;10.55;;;7.68;;
17239;SDS011;9943;54.378;18.604;2022-08-19T15:28:33;13.60;;;8.23;;
17239;SDS011;9943;54.378;18.604;2022-08-19T15:31:02;14.05;;;7.57;;
17239;SDS011;9943;54.378;18.604;2022-08-19T15:33:35;10.02;;;7.78;;
17239;SDS011;9943;54.378;18.604;2022-08-19T15:36:08;9.95;;;7.93;;
17239;SDS011;9943;54.378;18.604;2022-08-19T15:38:40;11.18;;;7.82;;
17239;SDS011;9943;54.378;18.604;2022-08-19T15:41:17;9.43;;;8.27;;
17239;SDS011;9943;54.378;18.604;2022-08-19T15:44:01;11.07;;;8.15;;
17239;SDS011;9943;54.378;18.604;2022-08-19T15:46:35;13.63;;;8.10;;